createdAt,value
2018-09-21T00:02:38.142Z,25.27
2018-09-21T00:05:06.908Z,20.33
2018-09-21T00:07:35.618Z,20.50
2018-09-21T00:10:05.197Z,20.02
2018-09-21T01:02:35.450Z,25.70
2018-09-21T01:05:04.221Z,25.10
2018-09-21T01:07:32.997Z,24.00
2018-09-21T01:10:02.090Z,24.37
2018-09-21T02:02:38.378Z,30.87
2018-09-21T02:05:07.098Z,29.47
2018-09-21T02:07:36.121Z,27.70
2018-09-21T02:10:05.224Z,25.60
2018-09-21T03:02:38.885Z,30.80
2018-09-21T03:05:07.631Z,27.60
2018-09-21T03:07:36.353Z,22.20
2018-09-21T03:10:06.209Z,22.47
2018-09-21T04:02:39.491Z,26.43
2018-09-21T04:05:08.229Z,27.33
2018-09-21T04:07:36.952Z,23.97
2018-09-21T04:10:06.233Z,25.95
2018-09-21T05:02:39.837Z,29.33
2018-09-21T05:05:08.621Z,28.60
2018-09-21T05:07:37.314Z,26.47
2018-09-21T05:10:06.439Z,25.52
2018-09-21T06:02:35.558Z,24.10
2018-09-21T06:05:08.267Z,24.77
2018-09-21T06:07:37.454Z,22.63
2018-09-21T07:02:39.823Z,20.03
2018-09-21T07:05:14.412Z,20.33
2018-09-21T07:07:43.559Z,17.90
2018-09-21T08:02:38.520Z,15.97
2018-09-21T08:05:07.484Z,15.43
2018-09-21T08:07:36.297Z,14.70
2018-09-21T08:10:05.640Z,15.45
2018-09-21T09:02:39.572Z,12.83
2018-09-21T09:05:08.378Z,12.40
2018-09-21T09:07:37.165Z,11.33
2018-09-21T09:10:07.308Z,11.93
2018-09-21T10:02:38.700Z,12.17
2018-09-21T10:05:07.543Z,12.17
2018-09-21T10:07:36.418Z,10.53
2018-09-21T11:02:38.749Z,10.90
2018-09-21T11:05:07.614Z,10.70
2018-09-21T11:07:37.450Z,10.60
2018-09-21T11:10:06.993Z,11.28
2018-09-21T12:02:38.695Z,11.30
2018-09-21T12:05:07.637Z,11.87
2018-09-21T12:07:36.431Z,11.70
2018-09-21T13:02:54.074Z,11.47
2018-09-21T13:05:22.943Z,11.10
2018-09-21T13:07:51.828Z,10.77
2018-09-21T14:02:42.990Z,11.10
2018-09-21T14:05:14.752Z,10.40
2018-09-21T14:07:43.641Z,11.60
2018-09-21T15:02:38.549Z,8.97
2018-09-21T15:05:07.327Z,8.60
2018-09-21T15:07:36.089Z,9.10
2018-09-21T15:10:05.441Z,9.60
2018-09-21T16:02:38.634Z,9.33
2018-09-21T16:05:07.483Z,9.67
2018-09-21T16:07:36.281Z,9.97
2018-09-21T16:10:05.382Z,9.30
2018-09-21T17:02:36.488Z,10.17
2018-09-21T17:05:05.356Z,9.03
2018-09-21T17:07:34.375Z,9.67
2018-09-21T17:10:03.210Z,9.83
2018-09-21T18:02:36.149Z,9.07
2018-09-21T18:05:04.955Z,10.30
2018-09-21T18:07:33.889Z,10.10
2018-09-21T18:10:02.882Z,10.23
2018-09-21T19:02:40.892Z,13.40
2018-09-21T19:05:09.729Z,14.80
2018-09-21T19:07:38.485Z,14.13
2018-09-21T19:10:07.693Z,14.63
2018-09-21T20:02:39.016Z,14.60
2018-09-21T20:05:07.818Z,14.60
2018-09-21T20:07:37.484Z,14.87
2018-09-21T20:10:06.962Z,14.90
2018-09-21T21:02:36.689Z,16.60
2018-09-21T21:05:05.584Z,16.27
2018-09-21T21:07:34.328Z,16.60
2018-09-21T21:10:03.166Z,15.63
2018-09-21T23:02:48.454Z,19.57
2018-09-21T23:05:17.173Z,17.63
2018-09-21T23:07:46.542Z,20.10
